Time;durP1;ratioP1;P1;durP2;ratioP2;P2;SDS_P1;SDS_P2;PMS_P1;PMS_P2;Temp;Humidity;BMP_temperature;BMP_pressure;BME280_temperature;BME280_humidity;BME280_pressure;Samples;Min_cycle;Max_cycle;Signal;HPM_P1;HPM_P2
2023/05/07 00:07:11;;;;;;;85.43;53.17;;;9.30;99.90;;;;;;25978126;22;20019;-59
2023/05/07 00:17:13;;;;;;;90.38;53.58;;;9.80;99.90;;;;;;25977543;22;20010;-59
2023/05/07 00:27:14;;;;;;;62.22;41.25;;;9.90;99.90;;;;;;25977701;22;19999;-58
2023/05/07 00:37:16;;;;;;;85.85;52.20;;;9.80;99.90;;;;;;25977760;22;20011;-48
2023/05/07 00:47:18;;;;;;;88.80;52.33;;;9.50;99.90;;;;;;25974373;22;20431;-49
2023/05/07 00:57:21;;;;;;;71.72;45.10;;;9.50;99.90;;;;;;25970427;22;20003;-58
2023/05/07 01:07:23;;;;;;;75.57;46.20;;;9.40;99.90;;;;;;25969736;22;20446;-49
2023/05/07 01:17:25;;;;;;;74.38;45.75;;;9.40;99.90;;;;;;25969417;22;20677;-50
2023/05/07 01:27:28;;;;;;;85.63;50.92;;;9.30;99.90;;;;;;25941846;22;20003;-51
2023/05/07 01:37:29;;;;;;;79.93;49.30;;;9.40;99.90;;;;;;25968351;22;19999;-51
2023/05/07 01:47:32;;;;;;;71.88;45.92;;;9.30;99.90;;;;;;25941041;22;20008;-50
2023/05/07 01:57:33;;;;;;;72.10;45.25;;;9.50;99.90;;;;;;25967759;22;20000;-50
2023/05/07 02:07:35;;;;;;;86.70;49.42;;;9.40;99.90;;;;;;25940223;22;20003;-58
2023/05/07 02:17:59;;;;;;;81.90;49.58;;;9.40;99.90;;;;;;25939691;22;20596;-58
2023/05/07 02:28:01;;;;;;;92.82;54.03;;;9.60;99.90;;;;;;26008815;22;20049;-52
2023/05/07 02:38:32;;;;;;;104.13;58.90;;;9.70;99.90;;;;;;25941611;22;20011;-49
2023/05/07 02:48:34;;;;;;;96.47;56.95;;;9.90;99.90;;;;;;25965672;22;20016;-59
2023/05/07 02:58:39;;;;;;;90.85;53.70;;;10.10;99.90;;;;;;25938083;22;20007;-49
2023/05/07 03:08:41;;;;;;;94.75;54.63;;;10.20;99.90;;;;;;25937342;22;20017;-59
2023/05/07 03:18:43;;;;;;;87.60;53.53;;;10.40;99.90;;;;;;25937510;22;19999;-59
2023/05/07 03:28:44;;;;;;;80.72;49.78;;;10.60;99.90;;;;;;25937153;22;20055;-51
2023/05/07 03:38:50;;;;;;;85.55;53.63;;;10.50;99.90;;;;;;25936994;22;20004;-51
2023/05/07 03:48:55;;;;;;;76.72;48.38;;;10.60;99.90;;;;;;25949660;22;20020;-59
2023/05/07 03:58:56;;;;;;;80.28;49.45;;;10.60;99.90;;;;;;25963122;22;20330;-59
2023/05/07 04:08:58;;;;;;;74.45;48.83;;;10.60;99.90;;;;;;25963630;22;20004;-59
2023/05/07 04:19:00;;;;;;;70.53;46.10;;;10.60;99.90;;;;;;25936470;22;20312;-49
2023/05/07 04:29:02;;;;;;;66.57;43.05;;;10.70;99.90;;;;;;25943529;22;20004;-59
2023/05/07 04:39:08;;;;;;;66.68;44.25;;;10.70;99.90;;;;;;25970087;22;20267;-53
2023/05/07 04:49:11;;;;;;;67.30;44.17;;;10.70;99.90;;;;;;25943407;22;20015;-59
2023/05/07 04:59:13;;;;;;;68.85;45.40;;;10.50;99.90;;;;;;25943070;22;20007;-50
2023/05/07 05:09:15;;;;;;;59.47;40.28;;;10.60;99.90;;;;;;25942541;22;20058;-59
2023/05/07 05:19:17;;;;;;;54.58;39.15;;;11.00;99.90;;;;;;25969176;22;20014;-58
2023/05/07 05:29:20;;;;;;;53.50;37.53;;;11.50;99.90;;;;;;25968803;22;20007;-59
2023/05/07 05:39:23;;;;;;;45.17;33.00;;;12.00;99.90;;;;;;25941418;22;20026;-59
2023/05/07 05:49:25;;;;;;;42.55;32.15;;;12.60;99.90;;;;;;25941062;22;20020;-54
2023/05/07 05:59:27;;;;;;;35.22;28.25;;;13.20;99.90;;;;;;25940578;22;20003;-49
2023/05/07 06:09:29;;;;;;;34.58;26.58;;;14.10;99.90;;;;;;25966284;22;20482;-52
2023/05/07 06:19:31;;;;;;;30.20;25.65;;;15.40;99.90;;;;;;25939807;22;20378;-49
2023/05/07 06:29:34;;;;;;;28.85;25.30;;;15.60;99.90;;;;;;25966559;22;20007;-48
2023/05/07 06:40:10;;;;;;;31.85;26.38;;;15.70;99.90;;;;;;25937518;22;20015;-50
2023/05/07 06:50:16;;;;;;;28.23;23.38;;;15.40;99.90;;;;;;25939303;22;20011;-51
2023/05/07 07:00:20;;;;;;;26.08;22.60;;;15.50;99.90;;;;;;25939171;22;20004;-51
2023/05/07 07:10:26;;;;;;;25.40;22.23;;;15.70;99.90;;;;;;25981573;22;20003;-50
2023/05/07 07:20:30;;;;;;;25.20;20.60;;;16.80;99.90;;;;;;25939027;22;20377;-50
2023/05/07 07:30:32;;;;;;;25.17;21.60;;;17.80;99.90;;;;;;25965440;22;20008;-61
2023/05/07 07:40:37;;;;;;;28.20;20.67;;;17.50;99.90;;;;;;25937309;22;20015;-50
2023/05/07 07:50:40;;;;;;;24.70;21.13;;;17.00;99.90;;;;;;25943321;22;20022;-61
2023/05/07 08:00:43;;;;;;;25.17;20.40;;;17.10;99.90;;;;;;25944491;22;20004;-60
2023/05/07 08:10:46;;;;;;;27.27;21.77;;;17.40;99.90;;;;;;25946032;22;20011;-61
2023/05/07 08:20:56;;;;;;;21.35;17.60;;;17.40;99.90;;;;;;25988067;22;20007;-61
2023/05/07 08:31:01;;;;;;;20.88;18.42;;;17.10;99.90;;;;;;25944870;22;20003;-48
2023/05/07 08:41:07;;;;;;;19.73;17.45;;;16.60;99.90;;;;;;25946170;22;20007;-60
2023/05/07 08:51:12;;;;;;;21.90;18.25;;;16.20;99.90;;;;;;25971439;22;20500;-50
2023/05/07 09:01:15;;;;;;;25.08;21.35;;;16.30;99.90;;;;;;25942445;22;20012;-46
2023/05/07 09:11:23;;;;;;;22.98;20.48;;;15.90;99.90;;;;;;25943816;22;20007;-60
2023/05/07 09:21:26;;;;;;;25.08;20.83;;;15.40;99.90;;;;;;25943651;22;20011;-47
2023/05/07 09:31:30;;;;;;;23.88;20.70;;;15.40;99.90;;;;;;25942830;22;20000;-60
2023/05/07 09:41:32;;;;;;;22.23;18.77;;;16.30;99.90;;;;;;25942753;22;20004;-60
2023/05/07 09:51:49;;;;;;;22.13;18.75;;;18.30;99.90;;;;;;25942640;22;20012;-61
2023/05/07 10:01:53;;;;;;;17.95;15.50;;;18.00;99.90;;;;;;25967659;22;20011;-49
2023/05/07 10:11:56;;;;;;;17.15;15.35;;;18.30;99.90;;;;;;25968122;22;20030;-59
2023/05/07 10:22:05;;;;;;;15.15;13.25;;;18.30;99.90;;;;;;25967645;22;20202;-50
2023/05/07 10:32:20;;;;;;;14.00;12.45;;;18.40;99.90;;;;;;25982435;22;20014;-50
2023/05/07 10:42:22;;;;;;;18.02;14.75;;;18.20;99.90;;;;;;26007608;22;20352;-49
2023/05/07 10:52:29;;;;;;;17.25;15.18;;;18.30;99.90;;;;;;25914157;22;20070;-61
2023/05/07 11:02:59;;;;;;;18.77;15.70;;;19.50;99.90;;;;;;25939795;22;20435;-48
2023/05/07 11:13:02;;;;;;;15.27;13.68;;;19.20;99.90;;;;;;25938806;22;20008;-61
2023/05/07 11:23:41;;;;;;;13.75;12.35;;;20.40;99.90;;;;;;25980923;22;20008;-51
2023/05/07 11:33:59;;;;;;;12.45;11.15;;;21.90;99.90;;;;;;25930032;22;20042;-48
2023/05/07 11:44:01;;;;;;;11.10;10.10;;;22.50;99.90;;;;;;25937657;22;20351;-60
2023/05/07 11:54:08;;;;;;;11.77;10.57;;;22.50;99.90;;;;;;25964694;22;20027;-51
2023/05/07 12:04:10;;;;;;;13.57;12.10;;;21.50;99.90;;;;;;26006331;22;20374;-50
2023/05/07 12:14:13;;;;;;;16.40;14.80;;;19.90;99.90;;;;;;25964035;22;20024;-48
2023/05/07 12:24:15;;;;;;;21.38;18.38;;;18.50;99.90;;;;;;25964698;22;20022;-48
2023/05/07 12:34:17;;;;;;;23.80;20.83;;;17.70;99.90;;;;;;25964129;22;20000;-52
2023/05/07 12:44:19;;;;;;;19.70;17.60;;;17.30;99.90;;;;;;25968441;22;20165;-60
2023/05/07 12:54:36;;;;;;;21.50;18.65;;;16.90;99.90;;;;;;25971462;22;20016;-60
2023/05/07 13:04:38;;;;;;;18.40;15.15;;;16.70;99.90;;;;;;25970185;22;20023;-60
2023/05/07 13:14:40;;;;;;;14.38;12.80;;;16.80;99.90;;;;;;25969571;22;20008;-60
2023/05/07 13:24:43;;;;;;;14.25;12.73;;;17.10;99.90;;;;;;25970667;22;20030;-60
2023/05/07 13:34:44;;;;;;;10.77;9.68;;;17.10;99.90;;;;;;25969756;22;20442;-52
2023/05/07 13:44:46;;;;;;;13.77;12.27;;;16.80;99.90;;;;;;25968801;22;20113;-61
2023/05/07 13:54:48;;;;;;;12.30;10.93;;;16.70;99.90;;;;;;25968668;22;20516;-51
2023/05/07 14:04:49;;;;;;;10.50;8.73;;;17.20;99.90;;;;;;25967176;22;20055;-61
2023/05/07 14:14:51;;;;;;;11.82;10.25;;;18.00;99.90;;;;;;25968149;22;19999;-51
2023/05/07 14:24:53;;;;;;;11.38;10.23;;;17.90;99.90;;;;;;25967986;22;20057;-51
2023/05/07 14:34:54;;;;;;;14.60;13.10;;;17.90;99.90;;;;;;25965538;22;20012;-63
2023/05/07 14:44:56;;;;;;;18.95;15.98;;;18.90;99.90;;;;;;25966904;22;20011;-51
2023/05/07 14:54:58;;;;;;;17.88;16.13;;;18.60;99.90;;;;;;25966275;22;20015;-61
2023/05/07 15:04:59;;;;;;;20.98;17.95;;;18.40;99.90;;;;;;25965986;22;20011;-50
2023/05/07 15:15:01;;;;;;;20.33;18.23;;;19.10;99.90;;;;;;25965852;22;20015;-60
2023/05/07 15:25:04;;;;;;;20.88;18.65;;;18.40;99.90;;;;;;25966017;22;20004;-51
2023/05/07 15:35:06;;;;;;;22.10;18.50;;;17.70;99.90;;;;;;25965372;22;20110;-51
2023/05/07 15:45:09;;;;;;;22.80;20.15;;;17.00;99.90;;;;;;25938195;22;20013;-48
2023/05/07 15:55:11;;;;;;;23.08;20.10;;;16.50;99.90;;;;;;25964495;22;20015;-60
2023/05/07 16:05:13;;;;;;;21.23;18.92;;;16.40;99.90;;;;;;25963582;22;20007;-60
2023/05/07 16:15:15;;;;;;;25.23;21.48;;;16.40;99.90;;;;;;25937762;22;20012;-50
2023/05/07 16:25:16;;;;;;;24.20;18.95;;;16.50;99.90;;;;;;25973084;22;20464;-47
2023/05/07 16:35:18;;;;;;;23.45;20.00;;;16.60;99.90;;;;;;25971034;22;20004;-60
2023/05/07 16:45:20;;;;;;;24.65;21.02;;;16.60;99.90;;;;;;26000164;22;20073;-60
2023/05/07 16:55:22;;;;;;;32.97;18.70;;;16.30;99.90;;;;;;25971774;22;20011;-60
2023/05/07 17:05:24;;;;;;;20.23;18.02;;;15.70;99.90;;;;;;25971307;22;19995;-49
2023/05/07 17:15:25;;;;;;;19.55;17.20;;;15.70;99.90;;;;;;25971090;22;20276;-60
2023/05/07 17:25:27;;;;;;;21.45;16.52;;;15.90;99.90;;;;;;25970700;22;20050;-60
2023/05/07 17:35:30;;;;;;;16.50;14.63;;;15.60;99.90;;;;;;25968512;22;20431;-52
2023/05/07 17:45:32;;;;;;;15.95;14.25;;;15.40;99.90;;;;;;25969339;22;20038;-60
2023/05/07 17:55:39;;;;;;;15.05;13.50;;;15.10;99.90;;;;;;25969249;22;20443;-60
2023/05/07 18:05:41;;;;;;;13.65;12.25;;;14.60;99.90;;;;;;26011427;22;20015;-59
2023/05/07 18:15:45;;;;;;;16.50;13.63;;;14.10;99.90;;;;;;25966433;22;20007;-59
2023/05/07 18:25:47;;;;;;;15.18;12.63;;;13.70;99.90;;;;;;25968196;22;20042;-59
2023/05/07 18:35:49;;;;;;;17.45;14.18;;;13.30;99.90;;;;;;25967530;22;20030;-60
2023/05/07 18:45:51;;;;;;;28.05;22.05;;;12.80;99.90;;;;;;25965808;22;20069;-62
2023/05/07 18:55:52;;;;;;;28.20;21.75;;;12.00;99.90;;;;;;25966600;22;20008;-50
2023/05/07 19:05:55;;;;;;;21.40;16.55;;;11.60;99.90;;;;;;25966474;22;20019;-60
2023/05/07 19:15:57;;;;;;;15.57;12.32;;;11.30;99.90;;;;;;25965190;22;20339;-59
2023/05/07 19:25:59;;;;;;;15.60;12.95;;;11.10;99.90;;;;;;25965962;22;20000;-61
2023/05/07 19:36:00;;;;;;;17.23;13.50;;;11.00;99.90;;;;;;25964335;22;20007;-60
2023/05/07 19:46:06;;;;;;;52.60;27.23;;;10.90;99.90;;;;;;25965086;22;20004;-49
2023/05/07 19:56:08;;;;;;;60.55;36.95;;;10.90;99.90;;;;;;25971547;22;20019;-62
2023/05/07 20:06:11;;;;;;;46.83;30.67;;;11.10;99.90;;;;;;25973556;22;20000;-59
2023/05/07 20:16:12;;;;;;;30.60;22.42;;;11.30;99.90;;;;;;25973317;22;20007;-50
2023/05/07 20:26:14;;;;;;;25.60;18.70;;;11.10;99.90;;;;;;25973047;22;20008;-48
2023/05/07 20:36:16;;;;;;;17.48;12.02;;;11.00;99.90;;;;;;25945726;22;20007;-60
2023/05/07 20:46:21;;;;;;;12.95;9.50;;;10.30;99.90;;;;;;25971912;22;20019;-50
2023/05/07 20:56:23;;;;;;;18.92;8.88;;;9.70;99.90;;;;;;25971366;22;20066;-49
2023/05/07 21:06:24;;;;;;;10.57;7.68;;;9.20;99.90;;;;;;25970791;22;20007;-50
2023/05/07 21:16:26;;;;;;;6.10;4.50;;;9.00;99.90;;;;;;25970798;22;20599;-50
2023/05/07 21:26:28;;;;;;;5.57;4.43;;;9.50;99.90;;;;;;25970683;22;20015;-57
2023/05/07 21:36:30;;;;;;;5.03;3.63;;;9.40;99.90;;;;;;25969992;22;20301;-47
2023/05/07 21:46:32;;;;;;;3.05;1.20;;;9.30;99.90;;;;;;25969600;22;20016;-48
2023/05/07 21:56:34;;;;;;;1.67;1.08;;;10.00;99.90;;;;;;25969382;22;20428;-59
2023/05/07 22:06:35;;;;;;;4.30;1.17;;;10.10;99.90;;;;;;25967846;22;20304;-46
2023/05/07 22:16:37;;;;;;;5.05;2.50;;;9.70;99.90;;;;;;25968549;22;20339;-47
2023/05/07 22:26:39;;;;;;;1.90;1.33;;;9.30;99.90;;;;;;25968237;22;20000;-50
2023/05/07 22:36:40;;;;;;;2.53;0.90;;;9.20;99.90;;;;;;25967349;22;20004;-47
2023/05/07 22:46:42;;;;;;;2.70;1.42;;;9.00;99.90;;;;;;25939888;22;20439;-47
2023/05/07 22:56:44;;;;;;;2.13;1.30;;;9.10;99.90;;;;;;25966696;22;20058;-59
2023/05/07 23:06:45;;;;;;;2.92;1.60;;;9.10;99.90;;;;;;25966388;22;20438;-48
2023/05/07 23:16:47;;;;;;;3.60;1.90;;;9.00;99.90;;;;;;25966114;22;20077;-47
2023/05/07 23:26:49;;;;;;;3.72;1.17;;;8.80;99.90;;;;;;25965765;22;20011;-61
2023/05/07 23:36:50;;;;;;;1.27;1.05;;;8.70;99.90;;;;;;25965393;22;20003;-60
2023/05/07 23:46:52;;;;;;;2.33;1.30;;;8.70;99.90;;;;;;25965266;22;20016;-61
2023/05/07 23:56:54;;;;;;;1.83;0.98;;;8.70;99.90;;;;;;25965017;22;20030;-46
